sensor_id;sensor_type;location;lat;lon;timestamp;pressure;altitude;pressure_sealevel;temperature;humidity
56402;BME280;42299;35.160;26.100;2023-08-07T00:01:47;100482.72;;;25.32;100.00
56402;BME280;42299;35.160;26.100;2023-08-07T00:12:11;100481.31;;;25.24;100.00
56402;BME280;42299;35.160;26.100;2023-08-07T00:22:35;100475.94;;;25.05;100.00
56402;BME280;42299;35.160;26.100;2023-08-07T00:32:59;100467.97;;;25.02;100.00
56402;BME280;42299;35.160;26.100;2023-08-07T00:43:02;100485.66;;;24.90;100.00
56402;BME280;42299;35.160;26.100;2023-08-07T00:53:26;100481.41;;;24.85;100.00
56402;BME280;42299;35.160;26.100;2023-08-07T01:03:49;100485.56;;;24.73;100.00
56402;BME280;42299;35.160;26.100;2023-08-07T01:14:21;100485.69;;;24.70;100.00
56402;BME280;42299;35.160;26.100;2023-08-07T01:24:51;100487.28;;;24.55;100.00
56402;BME280;42299;35.160;26.100;2023-08-07T01:35:16;100478.31;;;24.55;100.00
56402;BME280;42299;35.160;26.100;2023-08-07T01:45:43;100477.13;;;24.42;100.00
56402;BME280;42299;35.160;26.100;2023-08-07T01:55:53;100467.84;;;24.29;100.00
56402;BME280;42299;35.160;26.100;2023-08-07T02:06:01;100474.50;;;24.21;100.00
56402;BME280;42299;35.160;26.100;2023-08-07T02:16:23;100479.97;;;24.18;100.00
56402;BME280;42299;35.160;26.100;2023-08-07T02:26:47;100477.72;;;23.89;100.00
56402;BME280;42299;35.160;26.100;2023-08-07T02:37:10;100483.28;;;24.05;100.00
56402;BME280;42299;35.160;26.100;2023-08-07T02:47:34;100493.53;;;23.97;100.00
56402;BME280;42299;35.160;26.100;2023-08-07T02:57:56;100498.13;;;23.95;100.00
56402;BME280;42299;35.160;26.100;2023-08-07T03:08:20;100509.84;;;23.94;100.00
56402;BME280;42299;35.160;26.100;2023-08-07T03:18:23;100503.78;;;23.89;100.00
56402;BME280;42299;35.160;26.100;2023-08-07T03:28:47;100505.88;;;23.82;100.00
56402;BME280;42299;35.160;26.100;2023-08-07T03:39:10;100500.66;;;23.77;100.00
56402;BME280;42299;35.160;26.100;2023-08-07T03:49:35;100518.50;;;23.60;100.00
56402;BME280;42299;35.160;26.100;2023-08-07T03:59:58;100518.13;;;24.09;100.00
56402;BME280;42299;35.160;26.100;2023-08-07T04:10:24;100530.63;;;24.52;100.00
56402;BME280;42299;35.160;26.100;2023-08-07T04:20:49;100516.47;;;25.05;100.00
56402;BME280;42299;35.160;26.100;2023-08-07T04:31:13;100517.63;;;25.54;100.00
56402;BME280;42299;35.160;26.100;2023-08-07T04:41:36;100512.53;;;26.01;100.00
56402;BME280;42299;35.160;26.100;2023-08-07T04:52:00;100519.66;;;26.54;100.00
56402;BME280;42299;35.160;26.100;2023-08-07T05:02:22;100530.66;;;27.17;100.00
56402;BME280;42299;35.160;26.100;2023-08-07T05:12:48;100535.19;;;28.09;100.00
56402;BME280;42299;35.160;26.100;2023-08-07T05:23:16;100539.41;;;28.87;98.58
56402;BME280;42299;35.160;26.100;2023-08-07T05:33:41;100546.41;;;30.00;81.64
56402;BME280;42299;35.160;26.100;2023-08-07T05:44:03;100541.59;;;31.19;64.47
56402;BME280;42299;35.160;26.100;2023-08-07T05:54:27;100539.72;;;32.16;53.05
56402;BME280;42299;35.160;26.100;2023-08-07T06:04:50;100541.94;;;32.91;50.13
56402;BME280;42299;35.160;26.100;2023-08-07T06:14:55;100543.44;;;33.39;48.72
56402;BME280;42299;35.160;26.100;2023-08-07T06:25:17;100535.06;;;33.95;46.44
56402;BME280;42299;35.160;26.100;2023-08-07T06:35:42;100535.94;;;34.48;43.65
56402;BME280;42299;35.160;26.100;2023-08-07T06:46:04;100537.97;;;34.46;44.31
56402;BME280;42299;35.160;26.100;2023-08-07T06:56:29;100541.94;;;34.63;44.79
56402;BME280;42299;35.160;26.100;2023-08-07T07:06:52;100545.25;;;34.66;44.35
56402;BME280;42299;35.160;26.100;2023-08-07T07:16:55;100546.44;;;34.85;42.60
56402;BME280;42299;35.160;26.100;2023-08-07T07:27:18;100536.25;;;35.06;42.68
56402;BME280;42299;35.160;26.100;2023-08-07T07:37:42;100541.13;;;35.23;41.49
56402;BME280;42299;35.160;26.100;2023-08-07T07:48:05;100534.91;;;35.80;36.97
56402;BME280;42299;35.160;26.100;2023-08-07T07:58:30;100540.41;;;35.90;38.45
56402;BME280;42299;35.160;26.100;2023-08-07T08:08:53;100538.06;;;36.05;39.02
56402;BME280;42299;35.160;26.100;2023-08-07T08:18:57;100535.03;;;35.79;39.98
56402;BME280;42299;35.160;26.100;2023-08-07T08:29:19;100544.44;;;36.15;40.43
56402;BME280;42299;35.160;26.100;2023-08-07T08:39:44;100539.34;;;36.58;41.36
56402;BME280;42299;35.160;26.100;2023-08-07T08:50:08;100541.38;;;36.66;41.48
56402;BME280;42299;35.160;26.100;2023-08-07T09:00:36;100543.72;;;36.98;41.71
56402;BME280;42299;35.160;26.100;2023-08-07T09:10:58;100558.34;;;37.08;41.95
56402;BME280;42299;35.160;26.100;2023-08-07T09:21:22;100542.09;;;37.15;41.36
56402;BME280;42299;35.160;26.100;2023-08-07T09:31:45;100535.53;;;37.70;40.88
56402;BME280;42299;35.160;26.100;2023-08-07T09:42:15;100537.28;;;37.89;41.19
56402;BME280;42299;35.160;26.100;2023-08-07T09:52:39;100537.50;;;37.96;41.54
56402;BME280;42299;35.160;26.100;2023-08-07T10:02:44;100538.53;;;37.95;42.74
56402;BME280;42299;35.160;26.100;2023-08-07T10:13:07;100543.44;;;38.01;41.82
56402;BME280;42299;35.160;26.100;2023-08-07T10:23:32;100530.19;;;37.69;41.93
56402;BME280;42299;35.160;26.100;2023-08-07T10:33:56;100524.22;;;37.46;42.78
56402;BME280;42299;35.160;26.100;2023-08-07T10:44:22;100533.31;;;37.29;43.19
56402;BME280;42299;35.160;26.100;2023-08-07T10:54:46;100542.66;;;36.81;43.68
56402;BME280;42299;35.160;26.100;2023-08-07T11:05:10;100542.66;;;37.18;43.38
56402;BME280;42299;35.160;26.100;2023-08-07T11:15:32;100554.88;;;36.96;43.54
56402;BME280;42299;35.160;26.100;2023-08-07T11:25:58;100552.44;;;36.93;44.39
56402;BME280;42299;35.160;26.100;2023-08-07T11:36:22;100551.53;;;36.65;46.72
56402;BME280;42299;35.160;26.100;2023-08-07T11:46:47;100553.59;;;37.00;46.93
56402;BME280;42299;35.160;26.100;2023-08-07T11:57:15;100539.50;;;37.03;46.79
56402;BME280;42299;35.160;26.100;2023-08-07T12:07:40;100542.81;;;36.51;49.40
56402;BME280;42299;35.160;26.100;2023-08-07T12:18:02;100538.94;;;36.15;50.60
56402;BME280;42299;35.160;26.100;2023-08-07T12:28:27;100531.72;;;36.14;48.53
56402;BME280;42299;35.160;26.100;2023-08-07T12:38:49;100523.63;;;36.22;47.94
56402;BME280;42299;35.160;26.100;2023-08-07T12:49:15;100534.00;;;36.47;46.39
56402;BME280;42299;35.160;26.100;2023-08-07T12:59:37;100533.88;;;36.39;47.36
56402;BME280;42299;35.160;26.100;2023-08-07T13:10:01;100529.25;;;36.40;47.56
56402;BME280;42299;35.160;26.100;2023-08-07T13:20:24;100525.78;;;36.09;47.72
56402;BME280;42299;35.160;26.100;2023-08-07T13:30:49;100521.88;;;35.82;50.08
56402;BME280;42299;35.160;26.100;2023-08-07T13:41:14;100516.03;;;35.37;52.45
56402;BME280;42299;35.160;26.100;2023-08-07T13:51:38;100515.00;;;34.98;53.69
56402;BME280;42299;35.160;26.100;2023-08-07T14:02:01;100513.34;;;34.86;56.37
56402;BME280;42299;35.160;26.100;2023-08-07T14:12:26;100512.50;;;34.65;58.25
56402;BME280;42299;35.160;26.100;2023-08-07T14:22:48;100504.97;;;34.88;57.66
56402;BME280;42299;35.160;26.100;2023-08-07T14:33:13;100514.09;;;35.28;57.50
56402;BME280;42299;35.160;26.100;2023-08-07T14:43:35;100502.91;;;35.20;59.93
56402;BME280;42299;35.160;26.100;2023-08-07T14:53:59;100496.94;;;35.36;57.39
56402;BME280;42299;35.160;26.100;2023-08-07T15:04:21;100517.50;;;34.60;55.41
56402;BME280;42299;35.160;26.100;2023-08-07T15:14:46;100511.94;;;33.88;60.92
56402;BME280;42299;35.160;26.100;2023-08-07T15:25:09;100511.22;;;33.09;65.25
56402;BME280;42299;35.160;26.100;2023-08-07T15:35:33;100510.56;;;31.69;90.55
56402;BME280;42299;35.160;26.100;2023-08-07T15:45:56;100497.97;;;30.94;100.00
56402;BME280;42299;35.160;26.100;2023-08-07T15:56:21;100503.31;;;30.95;100.00
56402;BME280;42299;35.160;26.100;2023-08-07T16:06:43;100502.56;;;30.93;100.00
56402;BME280;42299;35.160;26.100;2023-08-07T16:17:08;100506.41;;;30.78;100.00
56402;BME280;42299;35.160;26.100;2023-08-07T16:27:30;100498.66;;;30.59;100.00
56402;BME280;42299;35.160;26.100;2023-08-07T16:37:55;100504.44;;;30.42;100.00
56402;BME280;42299;35.160;26.100;2023-08-07T16:48:18;100508.66;;;30.21;100.00
56402;BME280;42299;35.160;26.100;2023-08-07T16:58:41;100501.22;;;29.97;100.00
56402;BME280;42299;35.160;26.100;2023-08-07T17:09:05;100518.91;;;29.78;100.00
56402;BME280;42299;35.160;26.100;2023-08-07T17:19:29;100526.47;;;29.60;100.00
56402;BME280;42299;35.160;26.100;2023-08-07T17:29:52;100525.81;;;29.42;100.00
56402;BME280;42299;35.160;26.100;2023-08-07T17:40:17;100532.13;;;29.28;100.00
56402;BME280;42299;35.160;26.100;2023-08-07T17:50:39;100534.63;;;29.05;100.00
56402;BME280;42299;35.160;26.100;2023-08-07T18:01:04;100547.44;;;28.88;100.00
56402;BME280;42299;35.160;26.100;2023-08-07T18:11:26;100553.78;;;28.75;100.00
56402;BME280;42299;35.160;26.100;2023-08-07T18:21:50;100551.19;;;28.58;100.00
56402;BME280;42299;35.160;26.100;2023-08-07T18:32:13;100557.56;;;28.42;100.00
56402;BME280;42299;35.160;26.100;2023-08-07T18:42:38;100560.28;;;28.28;100.00
56402;BME280;42299;35.160;26.100;2023-08-07T18:53:00;100568.81;;;28.06;100.00
56402;BME280;42299;35.160;26.100;2023-08-07T19:03:25;100563.09;;;27.81;100.00
56402;BME280;42299;35.160;26.100;2023-08-07T19:13:48;100573.50;;;27.73;100.00
56402;BME280;42299;35.160;26.100;2023-08-07T19:24:05;100560.66;;;27.61;100.00
56402;BME280;42299;35.160;26.100;2023-08-07T19:34:27;100564.22;;;27.46;100.00
56402;BME280;42299;35.160;26.100;2023-08-07T19:44:51;100563.44;;;27.28;100.00
56402;BME280;42299;35.160;26.100;2023-08-07T19:55:14;100560.63;;;27.14;100.00
56402;BME280;42299;35.160;26.100;2023-08-07T20:05:39;100557.47;;;27.06;100.00
56402;BME280;42299;35.160;26.100;2023-08-07T20:16:01;100550.97;;;26.92;100.00
56402;BME280;42299;35.160;26.100;2023-08-07T20:26:26;100548.03;;;26.80;100.00
56402;BME280;42299;35.160;26.100;2023-08-07T20:36:48;100555.00;;;26.68;100.00
56402;BME280;42299;35.160;26.100;2023-08-07T20:47:13;100552.72;;;26.61;100.00
56402;BME280;42299;35.160;26.100;2023-08-07T20:57:36;100560.47;;;26.51;100.00
56402;BME280;42299;35.160;26.100;2023-08-07T21:08:00;100545.84;;;26.38;100.00
56402;BME280;42299;35.160;26.100;2023-08-07T21:18:23;100549.81;;;26.31;100.00
56402;BME280;42299;35.160;26.100;2023-08-07T21:28:42;100541.34;;;26.19;100.00
56402;BME280;42299;35.160;26.100;2023-08-07T21:39:05;100534.91;;;26.05;100.00
56402;BME280;42299;35.160;26.100;2023-08-07T21:49:29;100531.09;;;25.92;100.00
56402;BME280;42299;35.160;26.100;2023-08-07T21:59:52;100526.03;;;25.67;100.00
56402;BME280;42299;35.160;26.100;2023-08-07T22:10:17;100518.22;;;25.61;100.00
56402;BME280;42299;35.160;26.100;2023-08-07T22:20:39;100520.25;;;25.38;100.00
56402;BME280;42299;35.160;26.100;2023-08-07T22:31:05;100517.03;;;25.30;100.00
56402;BME280;42299;35.160;26.100;2023-08-07T22:41:28;100514.28;;;25.13;100.00
56402;BME280;42299;35.160;26.100;2023-08-07T22:51:54;100507.56;;;25.03;100.00
56402;BME280;42299;35.160;26.100;2023-08-07T23:02:17;100508.16;;;24.91;100.00
56402;BME280;42299;35.160;26.100;2023-08-07T23:12:42;100495.78;;;24.85;100.00
56402;BME280;42299;35.160;26.100;2023-08-07T23:23:04;100490.19;;;24.90;100.00
56402;BME280;42299;35.160;26.100;2023-08-07T23:33:29;100475.50;;;24.95;100.00
56402;BME280;42299;35.160;26.100;2023-08-07T23:43:52;100476.19;;;25.00;100.00
56402;BME280;42299;35.160;26.100;2023-08-07T23:54:16;100478.47;;;25.08;100.00
